createdAt,value
2022-11-30T00:03:16.410Z,6.26
2022-11-30T00:08:18.895Z,6.09
2022-11-30T00:13:20.454Z,6.13
2022-11-30T00:18:22.013Z,6.17
2022-11-30T00:23:23.557Z,6.23
2022-11-30T00:28:25.141Z,6.11
2022-11-30T00:33:27.081Z,6.12
2022-11-30T00:38:28.913Z,6.08
2022-11-30T00:43:30.825Z,6.15
2022-11-30T00:48:32.462Z,6.16
2022-11-30T00:53:34.112Z,6.22
2022-11-30T00:58:36.064Z,6.11
2022-11-30T01:03:37.904Z,6.01
2022-11-30T01:08:39.508Z,6.18
2022-11-30T01:13:41.501Z,6.16
2022-11-30T01:18:43.825Z,6.06
2022-11-30T01:23:45.848Z,6.07
2022-11-30T01:28:54.827Z,6.10
2022-11-30T01:33:56.453Z,6.15
2022-11-30T01:38:58.526Z,6.02
2022-11-30T01:44:05.794Z,6.19
2022-11-30T01:49:10.390Z,6.16
2022-11-30T01:54:15.103Z,6.04
2022-11-30T01:59:17.702Z,6.16
2022-11-30T02:04:20.653Z,6.15
2022-11-30T02:09:22.785Z,6.11
2022-11-30T02:14:30.330Z,6.06
2022-11-30T02:19:31.772Z,6.05
2022-11-30T02:25:15.171Z,6.15
2022-11-30T02:30:19.107Z,5.96
2022-11-30T02:35:23.316Z,5.98
2022-11-30T02:40:25.238Z,6.01
2022-11-30T02:45:33.349Z,5.91
2022-11-30T02:50:56.901Z,5.99
2022-11-30T02:55:58.482Z,5.95
2022-11-30T03:01:00.047Z,5.96
2022-11-30T03:06:01.653Z,6.00
2022-11-30T03:11:04.801Z,5.97
2022-11-30T03:16:11.052Z,5.82
2022-11-30T03:21:13.147Z,5.91
2022-11-30T03:26:14.798Z,5.91
2022-11-30T03:31:16.449Z,5.79
2022-11-30T03:36:18.106Z,5.65
2022-11-30T03:41:19.876Z,5.61
2022-11-30T03:46:21.793Z,5.55
2022-11-30T03:51:23.342Z,5.50
2022-11-30T03:56:24.911Z,5.41
2022-11-30T04:01:26.844Z,5.33
2022-11-30T04:06:28.452Z,5.40
2022-11-30T04:11:30.032Z,5.36
2022-11-30T04:16:31.693Z,5.24
2022-11-30T04:21:33.346Z,5.24
2022-11-30T04:26:34.942Z,5.34
2022-11-30T04:31:36.541Z,5.27
2022-11-30T04:36:38.119Z,5.39
2022-11-30T04:41:40.022Z,5.27
2022-11-30T04:46:41.648Z,5.27
2022-11-30T04:51:43.244Z,5.19
2022-11-30T04:56:44.788Z,5.22
2022-11-30T05:01:46.373Z,5.25
2022-11-30T05:06:47.956Z,5.32
2022-11-30T05:11:49.550Z,5.28
2022-11-30T05:16:51.106Z,5.33
2022-11-30T05:21:52.651Z,5.15
2022-11-30T05:26:54.372Z,5.22
2022-11-30T05:31:55.987Z,5.27
2022-11-30T05:36:57.565Z,5.39
2022-11-30T05:41:59.171Z,5.30
2022-11-30T05:47:00.774Z,5.22
2022-11-30T05:52:02.461Z,5.39
2022-11-30T05:57:05.373Z,5.16
2022-11-30T06:02:07.015Z,5.16
2022-11-30T06:07:11.840Z,5.11
2022-11-30T06:12:13.438Z,5.18
2022-11-30T06:17:14.970Z,5.23
2022-11-30T06:22:16.540Z,5.21
2022-11-30T06:27:18.138Z,5.29
2022-11-30T06:32:19.704Z,5.11
2022-11-30T06:37:21.278Z,5.13
2022-11-30T06:42:22.846Z,5.12
2022-11-30T06:47:24.911Z,5.14
2022-11-30T06:52:26.477Z,5.17
2022-11-30T06:57:28.971Z,5.05
2022-11-30T07:02:30.549Z,5.00
2022-11-30T07:07:32.387Z,5.07
2022-11-30T07:12:35.876Z,5.14
2022-11-30T07:17:37.449Z,5.19
2022-11-30T07:22:39.029Z,5.13
2022-11-30T07:27:40.591Z,4.99
2022-11-30T07:32:42.153Z,4.98
2022-11-30T07:37:43.762Z,5.09
2022-11-30T07:42:45.516Z,5.05
2022-11-30T07:47:47.118Z,5.09
2022-11-30T07:52:48.640Z,5.05
2022-11-30T07:57:50.272Z,5.12
2022-11-30T08:02:52.005Z,5.18
2022-11-30T08:07:54.210Z,5.28
2022-11-30T08:12:55.843Z,5.19
2022-11-30T08:18:00.161Z,5.17
2022-11-30T08:23:01.754Z,5.12
2022-11-30T08:28:04.117Z,5.28
2022-11-30T08:33:06.155Z,5.32
2022-11-30T08:38:07.751Z,5.40
2022-11-30T08:43:09.389Z,5.36
2022-11-30T08:48:11.048Z,5.41
2022-11-30T08:53:12.612Z,5.41
2022-11-30T08:58:14.186Z,5.40
2022-11-30T09:03:15.759Z,5.31
2022-11-30T09:08:17.312Z,5.44
2022-11-30T09:13:19.163Z,5.49
2022-11-30T09:18:20.711Z,5.49
2022-11-30T09:23:22.259Z,5.51
2022-11-30T09:28:23.856Z,5.56
2022-11-30T09:33:25.399Z,5.65
2022-11-30T09:38:27.339Z,5.61
2022-11-30T09:43:32.372Z,5.78
2022-11-30T09:48:56.930Z,5.72
2022-11-30T09:54:07.835Z,5.69
2022-11-30T09:59:19.378Z,5.72
2022-11-30T10:04:25.997Z,5.84
2022-11-30T10:10:09.300Z,5.83
2022-11-30T10:15:34.531Z,5.87
2022-11-30T10:20:42.143Z,5.87
2022-11-30T10:25:52.819Z,5.92
2022-11-30T10:30:54.530Z,5.94
2022-11-30T10:35:59.082Z,5.93
2022-11-30T10:41:22.543Z,5.98
2022-11-30T10:46:29.338Z,6.00
2022-11-30T10:51:33.333Z,6.07
2022-11-30T10:56:34.869Z,6.14
2022-11-30T11:01:39.355Z,6.21
2022-11-30T11:06:43.315Z,6.28
2022-11-30T11:11:45.091Z,6.27
2022-11-30T11:17:22.162Z,6.32
2022-11-30T11:22:25.756Z,6.27
2022-11-30T11:27:29.819Z,6.35
2022-11-30T11:32:31.691Z,6.39
2022-11-30T11:37:37.767Z,6.30
2022-11-30T11:42:49.010Z,6.33
2022-11-30T11:48:05.594Z,6.30
2022-11-30T11:53:10.334Z,6.37
2022-11-30T11:58:17.425Z,6.45
2022-11-30T12:03:38.716Z,6.45
2022-11-30T12:08:51.747Z,6.46
2022-11-30T12:13:53.770Z,6.37
2022-11-30T12:19:17.666Z,6.40
2022-11-30T12:24:34.140Z,6.46
2022-11-30T12:30:17.777Z,6.50
2022-11-30T12:35:52.083Z,6.51
2022-11-30T12:41:18.065Z,6.43
2022-11-30T12:46:41.396Z,6.47
2022-11-30T12:51:48.117Z,6.42
2022-11-30T12:57:14.446Z,6.46
2022-11-30T13:02:39.309Z,6.46
2022-11-30T13:07:48.237Z,6.46
2022-11-30T13:12:51.785Z,6.30
2022-11-30T13:17:54.452Z,6.40
2022-11-30T13:23:05.753Z,6.54
2022-11-30T13:28:42.525Z,6.49
2022-11-30T13:33:49.193Z,6.45
2022-11-30T13:39:08.174Z,6.44
2022-11-30T13:44:24.791Z,6.46
2022-11-30T13:49:35.775Z,6.43
2022-11-30T13:54:43.558Z,6.47
2022-11-30T13:59:51.675Z,6.51
2022-11-30T14:04:53.478Z,6.48
2022-11-30T14:09:57.345Z,6.47
2022-11-30T14:14:59.808Z,6.47
2022-11-30T14:20:16.471Z,6.45
2022-11-30T14:25:20.186Z,6.49
2022-11-30T14:30:23.253Z,6.45
2022-11-30T14:35:29.870Z,6.45
2022-11-30T14:40:32.013Z,6.29
2022-11-30T14:45:34.456Z,6.30
2022-11-30T14:50:36.582Z,6.21
2022-11-30T14:55:59.519Z,6.32
2022-11-30T15:01:02.053Z,6.26
2022-11-30T15:06:04.611Z,6.23
2022-11-30T15:11:11.486Z,6.36
2022-11-30T15:16:25.900Z,6.26
2022-11-30T15:21:29.914Z,6.22
2022-11-30T15:26:35.083Z,6.45
2022-11-30T15:31:40.618Z,6.41
2022-11-30T15:36:42.665Z,6.39
2022-11-30T15:41:44.837Z,6.28
2022-11-30T15:46:56.842Z,6.29
2022-11-30T15:52:09.051Z,6.27
2022-11-30T15:57:10.776Z,6.28
2022-11-30T16:02:28.721Z,6.36
2022-11-30T16:07:34.144Z,6.30
2022-11-30T16:12:35.714Z,6.30
2022-11-30T16:17:37.314Z,6.30
2022-11-30T16:22:39.003Z,6.33
2022-11-30T16:27:40.835Z,6.32
2022-11-30T16:32:42.688Z,6.43
2022-11-30T16:37:44.228Z,6.43
2022-11-30T16:42:45.818Z,6.41
2022-11-30T16:47:47.483Z,6.40
2022-11-30T16:52:49.093Z,6.49
2022-11-30T16:57:50.750Z,6.35
2022-11-30T17:02:57.305Z,6.33
2022-11-30T17:07:59.008Z,6.52
2022-11-30T17:13:00.617Z,6.33
2022-11-30T17:18:02.254Z,6.27
2022-11-30T17:23:06.824Z,6.25
2022-11-30T17:28:08.403Z,6.28
2022-11-30T17:33:10.032Z,6.29
2022-11-30T17:38:12.011Z,6.26
2022-11-30T17:43:14.790Z,6.20
2022-11-30T17:48:16.373Z,6.39
2022-11-30T17:53:18.643Z,6.27
2022-11-30T17:58:20.224Z,6.36
2022-11-30T18:03:21.826Z,6.11
2022-11-30T18:08:23.391Z,5.77
2022-11-30T18:13:25.037Z,5.87
2022-11-30T18:18:26.611Z,5.79
2022-11-30T18:23:28.516Z,5.89
2022-11-30T18:28:30.170Z,5.63
2022-11-30T18:33:32.168Z,5.53
2022-11-30T18:38:38.128Z,5.50
2022-11-30T18:43:40.341Z,5.77
2022-11-30T18:48:42.095Z,5.66
2022-11-30T18:53:43.844Z,5.72
2022-11-30T18:58:46.024Z,5.63
2022-11-30T19:03:58.132Z,5.74
2022-11-30T19:09:05.037Z,5.67
2022-11-30T19:14:06.778Z,5.66
2022-11-30T19:19:10.802Z,5.67
2022-11-30T19:24:12.375Z,5.60
2022-11-30T19:29:14.088Z,5.40
2022-11-30T19:34:15.675Z,5.32
2022-11-30T19:39:17.330Z,5.28
2022-11-30T19:44:18.899Z,5.34
2022-11-30T19:49:20.444Z,5.39
2022-11-30T19:54:21.977Z,5.05
2022-11-30T19:59:23.551Z,5.11
2022-11-30T20:04:25.198Z,5.00
2022-11-30T20:09:26.821Z,5.03
2022-11-30T20:14:28.377Z,4.66
2022-11-30T20:19:29.919Z,4.43
2022-11-30T20:24:31.577Z,4.59
2022-11-30T20:29:33.507Z,4.74
2022-11-30T20:34:39.683Z,4.58
2022-11-30T20:39:46.047Z,4.60
2022-11-30T20:44:48.183Z,4.45
2022-11-30T20:49:50.124Z,4.37
2022-11-30T20:54:51.642Z,4.34
2022-11-30T20:59:53.191Z,4.35
2022-11-30T21:04:54.722Z,4.40
2022-11-30T21:09:56.437Z,4.19
2022-11-30T21:14:58.272Z,4.17
2022-11-30T21:20:00.592Z,3.92
2022-11-30T21:25:02.158Z,4.22
2022-11-30T21:30:04.375Z,4.07
2022-11-30T21:35:06.591Z,4.27
2022-11-30T21:40:08.712Z,4.22
2022-11-30T21:45:11.038Z,4.19
2022-11-30T21:50:12.720Z,4.09
2022-11-30T21:55:14.333Z,3.85
2022-11-30T22:00:16.156Z,4.08
2022-11-30T22:05:17.724Z,4.02
2022-11-30T22:10:19.256Z,4.02
2022-11-30T22:15:20.840Z,3.98
2022-11-30T22:20:22.403Z,3.89
2022-11-30T22:25:23.994Z,3.95
2022-11-30T22:30:25.743Z,3.88
2022-11-30T22:35:27.308Z,3.89
2022-11-30T22:40:29.365Z,3.62
2022-11-30T22:45:33.081Z,3.65
2022-11-30T22:50:34.913Z,3.53
2022-11-30T22:55:36.559Z,3.53
2022-11-30T23:00:38.217Z,3.58
2022-11-30T23:05:40.143Z,3.51
2022-11-30T23:10:41.730Z,3.50
2022-11-30T23:15:43.377Z,3.19
2022-11-30T23:20:44.930Z,3.56
2022-11-30T23:25:46.558Z,3.35
2022-11-30T23:30:48.097Z,3.30
2022-11-30T23:35:49.643Z,3.16
2022-11-30T23:40:51.200Z,3.37
2022-11-30T23:45:52.749Z,3.23
2022-11-30T23:50:54.595Z,3.02
2022-11-30T23:55:56.343Z,3.01
